Kezdőlap
METAR-TAF:

METAR-TAF

Repülőterek :

Békéscsabai repülőtér

Békéscsaba, Magyarország

földrajzi szélesség: 46-41-00N, földrajzi hosszúság: 021-09-45E, magasság: 86 m

Jelenlegi meteorológiai megfigyelések

A jelentés 3 órával és 37 perccel ezelõtt készült, 17:45 UTC
Észak-északkeleti szél 2 kt
Hőmérséklet 21°C
Páratartalom 78%
Légköri nyomás 1020 hPa
Látótávolság 10 km, vagy több
Kevés felhő 3000 lábon
Szakadozott felhőzet 20000 lábon

METAR: LHBC 271745Z 03002KT 9999 FEW030 BKN200 21/17 Q1020

Idő: 23:22 (21:22 UTC)


TAF: hiányzik

Meteorológiai megfigyelések és előrejelzések több, mint 4000 repülőtéren (METAR és TAF jelentéseket).

A térképen piros és sárga pontok jelzik az elérhető meteorológiai állomásokat.

Mozgassa az egeret a pont fölött, hogy megjelenjen az állomás neve.

Azután kattintson az időjárási megfigyelések és előrejelzések megtekintéséhez.

A térkép megváltoztatása: kattintson a fekete keresztel jelölt zöld gombra ráközelítéshez, a vonallal jelölt zöld gombra távolításhoz, vagy a zöld nyilakra a szomszédos térképek eléréséhez.


METAR-TAF: